Phnom Penh, Cambodia
Current Conditions -  °F | °C
As of 8:30 AM on Friday 28 Nov 2014 (Local Time) from VDPP Reporting Station
Scattered Clouds Scattered Clouds  
Wind Chill: 84°   Ceiling: Unl
Heat Index: 94°   Visibility: 6mi
Dew Point: 77°   Wind: 6mph
Humidity: 79%   Direction: 360°N
Pressure: 29.83"   Gusts: NA
Location:  11.56°N, 104.92°E
Report Text: VDPP 280130Z 36005KT 300V050 9999 FEW017 SCT050 29/25 Q1010
Loading
Personal Weather Stations






























Interactive Weather Map New forecast layout! Learn more

10-Day Weather Forecast

Advertisements
Track Severe Weather on mobile